Time;durP1;ratioP1;P1;durP2;ratioP2;P2;SDS_P1;SDS_P2;PMS_P1;PMS_P2;Temp;Humidity;BMP_temperature;BMP_pressure;BME280_temperature;BME280_humidity;BME280_pressure;Samples;Min_cycle;Max_cycle;Signal;HPM_P1;HPM_P2
2021/04/29 00:01:14;;;;;;;22.02;10.65;;;13.50;45.40;;;;;;5093100;28;20031;-36
2021/04/29 00:03:40;;;;;;;18.98;10.27;;;13.50;45.40;;;;;;5093227;28;20028;-36
2021/04/29 00:06:06;;;;;;;17.20;9.52;;;13.40;45.90;;;;;;5093717;28;20024;-36
2021/04/29 00:08:32;;;;;;;15.80;10.07;;;13.30;46.10;;;;;;5091844;28;20107;-35
2021/04/29 00:10:58;;;;;;;16.90;10.10;;;13.30;46.10;;;;;;5093318;28;20027;-36
2021/04/29 00:13:24;;;;;;;22.60;10.80;;;13.40;45.80;;;;;;5092933;28;20032;-35
2021/04/29 00:15:50;;;;;;;20.45;10.55;;;13.40;45.80;;;;;;5092902;28;20024;-35
2021/04/29 00:18:15;;;;;;;17.00;10.20;;;13.30;46.00;;;;;;5093215;28;20066;-35
2021/04/29 00:20:41;;;;;;;16.60;10.35;;;13.20;46.70;;;;;;5092882;28;20388;-36
2021/04/29 00:23:07;;;;;;;17.10;10.93;;;13.20;46.70;;;;;;5093030;28;20028;-36
2021/04/29 00:25:35;;;;;;;16.80;9.82;;;13.20;46.80;;;;;;5092883;28;20361;-35
2021/04/29 00:28:01;;;;;;;15.57;9.68;;;13.40;46.40;;;;;;5093093;28;20377;-36
2021/04/29 00:30:27;;;;;;;17.55;11.05;;;13.20;47.10;;;;;;5092832;28;20031;-36
2021/04/29 00:32:52;;;;;;;15.98;10.40;;;13.10;47.50;;;;;;5092667;28;20497;-36
2021/04/29 00:35:19;;;;;;;22.98;11.05;;;13.10;47.60;;;;;;5093008;28;20055;-36
2021/04/29 00:37:44;;;;;;;18.95;9.55;;;13.30;47.30;;;;;;5092933;28;20047;-36
2021/04/29 00:40:11;;;;;;;15.52;9.75;;;13.20;47.60;;;;;;5092718;28;20020;-36
2021/04/29 00:42:41;;;;;;;15.40;10.60;;;13.10;48.20;;;;;;5092863;28;20020;-37
2021/04/29 00:45:09;;;;;;;17.35;8.80;;;12.80;49.00;;;;;;5092937;28;20035;-36
2021/04/29 00:47:36;;;;;;;15.60;9.80;;;12.90;48.90;;;;;;5092748;28;20024;-36
2021/04/29 00:50:03;;;;;;;20.08;8.95;;;12.90;49.10;;;;;;5090995;28;20055;-36
2021/04/29 00:52:29;;;;;;;16.73;9.35;;;12.90;49.30;;;;;;5093224;28;20024;-36
2021/04/29 00:54:55;;;;;;;12.75;7.85;;;12.80;50.10;;;;;;5096381;28;20089;-35
2021/04/29 00:57:21;;;;;;;14.05;8.48;;;12.70;51.20;;;;;;5096194;28;20398;-35
2021/04/29 00:59:48;;;;;;;14.25;7.43;;;12.70;51.50;;;;;;5096435;28;20028;-36
2021/04/29 01:02:14;;;;;;;11.35;7.80;;;12.80;51.70;;;;;;5096281;28;20468;-36
2021/04/29 01:05:04;;;;;;;13.55;8.60;;;12.70;51.60;;;;;;5096015;28;20024;-35
2021/04/29 01:07:35;;;;;;;16.75;8.80;;;12.70;51.90;;;;;;5096501;28;20095;-35
2021/04/29 01:10:02;;;;;;;11.68;7.30;;;12.80;52.00;;;;;;5094998;28;20057;-36
2021/04/29 01:12:59;;;;;;;16.00;8.55;;;12.80;52.00;;;;;;5095830;28;20035;-36
2021/04/29 01:15:25;;;;;;;14.88;7.35;;;12.90;51.50;;;;;;5096073;28;20024;-35
2021/04/29 01:17:52;;;;;;;8.00;5.15;;;12.90;51.60;;;;;;5096085;28;20024;-36
2021/04/29 01:20:20;;;;;;;9.63;6.68;;;13.10;52.60;;;;;;5095641;28;20032;-36
2021/04/29 01:23:11;;;;;;;14.43;8.07;;;13.10;52.60;;;;;;5095877;28;20379;-36
2021/04/29 01:25:41;;;;;;;9.35;6.10;;;13.10;52.80;;;;;;5094541;28;20081;-36
2021/04/29 01:28:07;;;;;;;9.10;5.45;;;13.10;53.30;;;;;;5095678;28;20028;-36
2021/04/29 01:30:33;;;;;;;7.40;5.18;;;13.00;53.70;;;;;;5095537;28;20039;-36
2021/04/29 01:32:59;;;;;;;9.30;5.18;;;13.00;54.30;;;;;;5095509;28;20035;-35
2021/04/29 01:35:26;;;;;;;8.25;4.82;;;13.10;54.30;;;;;;5094263;28;20024;-36
2021/04/29 01:37:53;;;;;;;8.48;4.70;;;13.20;54.40;;;;;;5095518;28;20056;-36
2021/04/29 01:40:19;;;;;;;6.88;4.45;;;13.20;54.60;;;;;;5095577;28;20024;-36
2021/04/29 01:42:45;;;;;;;9.13;5.00;;;13.20;54.90;;;;;;5095650;28;20036;-35
2021/04/29 01:45:10;;;;;;;7.47;4.28;;;13.30;54.60;;;;;;5095399;28;20463;-36
2021/04/29 01:47:37;;;;;;;7.53;4.28;;;13.30;54.90;;;;;;5095328;28;20020;-36
2021/04/29 01:50:07;;;;;;;8.43;4.82;;;13.50;54.30;;;;;;5095192;28;20047;-36
2021/04/29 01:52:34;;;;;;;8.23;3.90;;;13.30;55.10;;;;;;5095496;28;20047;-36
2021/04/29 01:55:02;;;;;;;5.78;3.72;;;13.20;55.70;;;;;;5095050;28;20073;-35
2021/04/29 01:57:27;;;;;;;5.32;3.25;;;13.20;55.50;;;;;;5095352;28;20028;-36
2021/04/29 01:59:54;;;;;;;6.00;3.83;;;13.20;55.50;;;;;;5095029;28;20069;-35
2021/04/29 02:02:22;;;;;;;7.13;4.18;;;13.00;56.20;;;;;;5095059;28;20024;-36
2021/04/29 02:04:49;;;;;;;4.95;3.97;;;13.00;56.50;;;;;;5094281;28;20016;-35
2021/04/29 02:07:14;;;;;;;7.07;4.28;;;12.90;56.70;;;;;;5094766;28;20099;-35
2021/04/29 02:09:40;;;;;;;6.53;4.18;;;12.80;57.20;;;;;;5094780;28;20051;-35
2021/04/29 02:12:07;;;;;;;6.78;4.65;;;12.80;57.00;;;;;;5094791;28;20449;-35
2021/04/29 02:14:40;;;;;;;11.13;4.40;;;12.90;56.80;;;;;;5094760;28;20028;-35
2021/04/29 02:17:28;;;;;;;5.93;3.92;;;13.10;56.10;;;;;;5094785;28;20044;-35
2021/04/29 02:19:56;;;;;;;10.10;4.88;;;13.00;56.20;;;;;;5094997;28;20035;-35
2021/04/29 02:22:27;;;;;;;9.55;4.70;;;13.00;56.20;;;;;;5094608;28;20028;-35
2021/04/29 02:24:57;;;;;;;9.95;5.35;;;13.00;56.20;;;;;;5093328;28;20035;-36
2021/04/29 02:27:23;;;;;;;8.93;5.35;;;12.90;56.10;;;;;;5094954;28;20038;-35
2021/04/29 02:29:49;;;;;;;11.00;5.38;;;12.90;56.00;;;;;;5094345;28;20024;-34
2021/04/29 02:32:17;;;;;;;11.65;5.57;;;12.80;56.70;;;;;;5094330;28;20028;-35
2021/04/29 02:34:44;;;;;;;9.85;4.57;;;12.70;57.10;;;;;;5094589;28;20098;-35
2021/04/29 02:37:11;;;;;;;7.70;5.07;;;12.80;56.40;;;;;;5092992;28;20089;-39
2021/04/29 02:39:37;;;;;;;11.57;5.47;;;12.90;55.90;;;;;;5094751;28;20024;-35
2021/04/29 02:42:03;;;;;;;9.32;6.28;;;12.90;56.00;;;;;;5094115;28;20178;-35
2021/04/29 02:44:29;;;;;;;7.45;5.60;;;12.80;55.90;;;;;;5094450;28;20024;-35
2021/04/29 02:46:55;;;;;;;11.07;6.35;;;12.60;56.30;;;;;;5094414;28;20024;-35
2021/04/29 02:49:21;;;;;;;11.98;5.70;;;12.70;56.20;;;;;;5092526;28;20044;-35
2021/04/29 02:51:47;;;;;;;15.25;6.63;;;12.80;55.90;;;;;;5094273;28;20066;-35
2021/04/29 02:54:12;;;;;;;8.15;5.68;;;12.80;56.40;;;;;;5094306;28;20119;-34
2021/04/29 02:56:40;;;;;;;12.77;6.70;;;12.70;57.20;;;;;;5093661;28;20472;-35
2021/04/29 02:59:07;;;;;;;10.70;6.22;;;12.70;57.30;;;;;;5093774;28;20027;-35
2021/04/29 03:01:36;;;;;;;10.07;6.20;;;12.70;57.30;;;;;;5094051;28;20492;-35
2021/04/29 03:04:03;;;;;;;9.27;6.03;;;12.90;56.70;;;;;;5092442;28;20024;-35
2021/04/29 03:06:29;;;;;;;12.20;6.15;;;12.80;57.00;;;;;;5094031;28;20357;-34
2021/04/29 03:08:55;;;;;;;11.18;6.82;;;12.80;57.60;;;;;;5093826;28;20045;-35
2021/04/29 03:11:21;;;;;;;10.05;6.18;;;12.80;57.40;;;;;;5094033;28;20016;-35
2021/04/29 03:13:47;;;;;;;12.98;7.10;;;12.80;57.50;;;;;;5094097;28;20074;-36
2021/04/29 03:16:13;;;;;;;12.85;7.28;;;12.80;57.50;;;;;;5093630;28;20552;-36
2021/04/29 03:18:38;;;;;;;12.82;6.00;;;12.80;57.60;;;;;;5093573;28;20051;-36
2021/04/29 03:21:05;;;;;;;10.82;6.15;;;12.80;57.70;;;;;;5093759;28;20024;-36
2021/04/29 03:23:31;;;;;;;10.13;6.63;;;12.80;58.20;;;;;;5092346;28;20484;-35
2021/04/29 03:25:57;;;;;;;10.85;7.63;;;12.70;58.70;;;;;;5093686;28;20048;-35
2021/04/29 03:28:22;;;;;;;14.43;8.10;;;12.80;58.50;;;;;;5092177;28;20020;-35
2021/04/29 03:30:48;;;;;;;11.88;7.43;;;12.70;58.60;;;;;;5093495;28;20101;-35
2021/04/29 03:33:14;;;;;;;11.98;8.38;;;12.70;58.60;;;;;;5093717;28;20028;-35
2021/04/29 03:35:40;;;;;;;14.52;8.45;;;12.70;58.80;;;;;;5093623;28;20038;-35
2021/04/29 03:38:06;;;;;;;12.20;7.75;;;12.70;58.90;;;;;;5093681;28;20035;-35
2021/04/29 03:40:33;;;;;;;14.40;7.22;;;12.70;58.80;;;;;;5092080;28;20056;-35
2021/04/29 03:42:59;;;;;;;12.00;8.25;;;12.70;59.20;;;;;;5091981;28;20494;-35
2021/04/29 03:45:24;;;;;;;16.23;8.88;;;12.60;59.40;;;;;;5093643;28;20028;-35
2021/04/29 03:47:50;;;;;;;14.77;8.48;;;12.60;59.30;;;;;;5093244;28;20020;-35
2021/04/29 03:50:16;;;;;;;16.30;7.63;;;12.70;59.40;;;;;;5093199;28;20133;-35
2021/04/29 03:52:42;;;;;;;17.83;8.40;;;12.60;59.50;;;;;;5093249;28;20092;-35
2021/04/29 03:55:08;;;;;;;12.98;8.30;;;12.60;59.60;;;;;;5093728;28;20028;-36
2021/04/29 03:57:34;;;;;;;18.40;9.52;;;12.60;59.70;;;;;;5093133;28;20510;-35
2021/04/29 04:00:00;;;;;;;13.73;8.90;;;12.60;60.10;;;;;;5091905;28;20059;-35
2021/04/29 04:02:25;;;;;;;15.48;9.10;;;12.60;59.90;;;;;;5093340;28;20024;-35
2021/04/29 04:04:51;;;;;;;17.15;9.07;;;12.60;60.10;;;;;;5093419;28;20430;-35
2021/04/29 04:07:17;;;;;;;15.13;8.95;;;12.50;60.40;;;;;;5093134;28;20418;-35
2021/04/29 04:09:43;;;;;;;18.00;10.02;;;12.50;60.50;;;;;;5093046;28;20046;-35
2021/04/29 04:12:09;;;;;;;17.17;10.85;;;12.40;60.90;;;;;;5093047;28;20035;-37
2021/04/29 04:14:34;;;;;;;20.95;11.05;;;12.40;60.70;;;;;;5093089;28;20036;-35
2021/04/29 04:17:01;;;;;;;15.90;10.73;;;12.30;61.20;;;;;;5093020;28;20035;-35
2021/04/29 04:19:27;;;;;;;13.73;8.95;;;12.40;61.10;;;;;;5093323;28;20031;-35
2021/04/29 04:21:53;;;;;;;20.25;11.77;;;12.30;61.70;;;;;;5093044;28;20036;-35
2021/04/29 04:24:19;;;;;;;18.05;10.27;;;12.30;61.30;;;;;;5093231;28;20127;-35
2021/04/29 04:26:45;;;;;;;17.88;10.52;;;12.30;61.40;;;;;;5092866;28;20077;-35
2021/04/29 04:29:10;;;;;;;13.93;10.45;;;12.30;61.60;;;;;;5096677;28;20027;-35
2021/04/29 04:31:36;;;;;;;16.38;12.13;;;12.30;61.60;;;;;;5096204;28;20044;-35
2021/04/29 04:34:02;;;;;;;12.48;8.77;;;12.20;61.80;;;;;;5096673;28;20471;-35
2021/04/29 04:36:28;;;;;;;18.80;9.93;;;12.10;62.00;;;;;;5097972;28;20078;-35
2021/04/29 04:38:53;;;;;;;14.23;9.98;;;12.10;62.20;;;;;;5096594;28;20024;-35
2021/04/29 04:41:19;;;;;;;19.45;11.60;;;12.10;62.10;;;;;;5096837;28;20021;-35
2021/04/29 04:43:45;;;;;;;20.45;12.18;;;12.20;62.00;;;;;;5096780;28;20039;-35
2021/04/29 04:46:10;;;;;;;20.40;12.63;;;12.10;62.30;;;;;;5096354;28;20020;-35
2021/04/29 04:48:36;;;;;;;18.70;11.50;;;12.20;62.20;;;;;;5096236;28;20020;-35
2021/04/29 04:51:02;;;;;;;22.42;13.50;;;12.10;62.20;;;;;;5095535;28;20020;-35
2021/04/29 04:53:28;;;;;;;20.75;13.23;;;12.10;62.30;;;;;;5095098;28;20365;-35
2021/04/29 04:55:54;;;;;;;19.15;12.98;;;12.00;62.80;;;;;;5094876;28;20047;-35
2021/04/29 04:58:20;;;;;;;24.17;14.40;;;11.90;63.10;;;;;;5096229;28;20071;-36
2021/04/29 05:00:48;;;;;;;24.80;13.90;;;12.00;63.00;;;;;;5096192;28;20076;-35
2021/04/29 05:03:15;;;;;;;21.98;14.77;;;12.00;63.20;;;;;;5096005;28;20024;-35
2021/04/29 05:05:42;;;;;;;20.60;13.20;;;11.80;63.40;;;;;;5096383;28;20099;-36
2021/04/29 05:08:08;;;;;;;20.27;12.65;;;11.80;63.50;;;;;;5094817;28;20391;-35
2021/04/29 05:10:35;;;;;;;24.85;14.43;;;11.80;63.70;;;;;;5095987;28;20023;-35
2021/04/29 05:13:02;;;;;;;26.60;14.57;;;11.80;63.80;;;;;;5096005;28;20085;-35
2021/04/29 05:15:29;;;;;;;23.00;14.15;;;11.80;63.50;;;;;;5094879;28;20032;-35
2021/04/29 05:17:55;;;;;;;20.95;14.52;;;11.80;63.70;;;;;;5094881;28;20028;-36
2021/04/29 05:20:21;;;;;;;31.10;16.85;;;11.90;63.20;;;;;;5095734;28;20024;-36
2021/04/29 05:22:47;;;;;;;25.98;16.15;;;12.00;62.70;;;;;;5095465;28;20028;-36
2021/04/29 05:25:13;;;;;;;30.33;16.10;;;11.90;62.90;;;;;;5095689;28;20383;-35
2021/04/29 05:27:39;;;;;;;24.42;15.65;;;11.60;63.60;;;;;;5095423;28;20070;-34
2021/04/29 05:30:06;;;;;;;25.38;16.02;;;11.70;63.50;;;;;;5095873;28;20044;-36
2021/04/29 05:32:31;;;;;;;20.50;11.80;;;11.60;64.00;;;;;;5095511;28;20064;-36
2021/04/29 05:34:57;;;;;;;22.42;14.88;;;11.50;64.00;;;;;;5096156;28;20047;-35
2021/04/29 05:37:24;;;;;;;27.65;17.55;;;11.40;64.50;;;;;;5095699;28;20052;-35
2021/04/29 05:39:51;;;;;;;25.23;16.42;;;11.40;64.30;;;;;;5095482;28;20035;-35
2021/04/29 05:42:16;;;;;;;25.48;16.10;;;11.30;64.90;;;;;;5095985;28;20062;-35
2021/04/29 05:44:42;;;;;;;21.05;14.27;;;11.30;64.80;;;;;;5095575;28;20048;-35
2021/04/29 05:47:08;;;;;;;23.52;17.05;;;11.50;64.60;;;;;;5095286;28;20078;-35
2021/04/29 05:49:34;;;;;;;27.35;17.58;;;11.50;64.50;;;;;;5094991;28;20545;-35
2021/04/29 05:51:59;;;;;;;29.17;17.50;;;11.80;63.60;;;;;;5095415;28;20024;-35
2021/04/29 05:54:25;;;;;;;21.50;11.00;;;11.90;63.30;;;;;;5093794;28;20028;-35
2021/04/29 05:56:51;;;;;;;27.73;17.30;;;11.80;64.10;;;;;;5095677;28;20478;-35
2021/04/29 05:59:16;;;;;;;29.25;18.65;;;11.70;65.60;;;;;;5095270;28;20024;-35
2021/04/29 06:01:42;;;;;;;28.90;17.25;;;11.80;64.70;;;;;;5094621;28;20031;-35
2021/04/29 06:04:08;;;;;;;26.15;15.88;;;11.90;64.20;;;;;;5095108;28;20036;-36
2021/04/29 06:06:34;;;;;;;22.52;15.43;;;11.80;62.10;;;;;;5095405;28;20426;-37
2021/04/29 06:08:59;;;;;;;23.85;16.00;;;11.80;62.10;;;;;;5094860;28;20376;-44
2021/04/29 06:11:25;;;;;;;21.88;15.27;;;11.70;61.40;;;;;;5094837;28;20109;-37
2021/04/29 06:13:51;;;;;;;25.98;15.90;;;11.60;60.60;;;;;;5094306;28;20472;-36
2021/04/29 06:16:17;;;;;;;31.05;15.82;;;11.80;60.00;;;;;;5094803;28;20134;-36
2021/04/29 06:18:43;;;;;;;40.92;18.67;;;11.60;59.70;;;;;;5094998;28;20050;-36
2021/04/29 06:21:09;;;;;;;31.25;17.45;;;11.60;59.20;;;;;;5093198;28;20040;-37
2021/04/29 06:23:35;;;;;;;26.13;16.40;;;11.50;59.70;;;;;;5093022;28;20123;-37
2021/04/29 06:26:01;;;;;;;27.90;17.75;;;11.50;60.10;;;;;;5095634;28;20055;-37
2021/04/29 06:28:27;;;;;;;25.40;15.30;;;11.50;59.70;;;;;;5093655;28;20020;-36
2021/04/29 06:30:54;;;;;;;32.35;17.35;;;11.60;59.10;;;;;;5094323;28;20034;-35
2021/04/29 06:33:23;;;;;;;26.85;17.02;;;11.60;59.50;;;;;;5093871;28;20048;-35
2021/04/29 06:35:49;;;;;;;27.17;17.08;;;11.80;59.10;;;;;;5092853;28;20491;-36
2021/04/29 06:38:15;;;;;;;24.85;16.00;;;11.80;58.60;;;;;;5094210;28;20027;-35
2021/04/29 06:40:41;;;;;;;29.63;17.40;;;11.80;58.30;;;;;;5094448;28;20052;-35
2021/04/29 06:43:06;;;;;;;29.48;16.27;;;11.70;58.60;;;;;;5093805;28;20024;-36
2021/04/29 06:45:33;;;;;;;27.90;17.52;;;11.90;58.10;;;;;;5093980;28;20035;-36
2021/04/29 06:47:58;;;;;;;31.42;16.42;;;12.00;57.90;;;;;;5094127;28;20032;-34
2021/04/29 06:50:24;;;;;;;21.52;15.05;;;12.00;57.00;;;;;;5093163;28;20044;-35
2021/04/29 06:52:50;;;;;;;27.23;16.30;;;12.00;57.00;;;;;;5093934;28;20046;-35
2021/04/29 06:55:16;;;;;;;29.70;17.35;;;12.20;56.00;;;;;;5094272;28;20464;-36
2021/04/29 06:57:41;;;;;;;28.80;16.55;;;12.40;55.30;;;;;;5094038;28;20103;-36
2021/04/29 07:00:07;;;;;;;23.85;15.35;;;12.70;54.80;;;;;;5093863;28;20357;-36
2021/04/29 07:02:33;;;;;;;23.13;15.35;;;12.90;53.70;;;;;;5093922;28;20028;-35
2021/04/29 07:04:59;;;;;;;24.30;14.57;;;12.60;52.90;;;;;;5094054;28;20031;-36
2021/04/29 07:07:25;;;;;;;29.75;17.38;;;12.40;52.80;;;;;;5093791;28;20509;-36
2021/04/29 07:09:51;;;;;;;23.73;15.93;;;12.30;52.90;;;;;;5094170;28;20028;-35
2021/04/29 07:12:16;;;;;;;27.23;14.80;;;12.40;52.20;;;;;;5093500;28;20020;-37
2021/04/29 07:14:42;;;;;;;24.00;15.15;;;12.30;52.60;;;;;;5092395;28;20069;-36
2021/04/29 07:17:08;;;;;;;23.85;16.17;;;12.50;51.80;;;;;;5093896;28;20107;-35
2021/04/29 07:19:33;;;;;;;20.00;12.90;;;12.50;52.10;;;;;;5092372;28;20031;-35
2021/04/29 07:21:59;;;;;;;23.35;13.52;;;12.50;51.80;;;;;;5093572;28;20028;-36
2021/04/29 07:24:25;;;;;;;18.35;13.10;;;12.60;51.20;;;;;;5092837;28;20364;-35
2021/04/29 07:26:50;;;;;;;21.45;14.25;;;12.60;51.50;;;;;;5093669;28;20028;-36
2021/04/29 07:29:16;;;;;;;27.42;15.05;;;12.90;50.60;;;;;;5092403;28;20020;-37
2021/04/29 07:31:42;;;;;;;25.63;15.05;;;12.60;51.30;;;;;;5093892;28;20376;-39
2021/04/29 07:34:11;;;;;;;24.85;14.73;;;12.90;50.50;;;;;;5093676;28;20016;-37
2021/04/29 07:36:37;;;;;;;16.58;9.43;;;12.90;50.20;;;;;;5092136;28;20051;-37
2021/04/29 07:39:04;;;;;;;22.35;13.95;;;12.90;50.00;;;;;;5093628;28;20429;-36
2021/04/29 07:41:30;;;;;;;30.67;15.82;;;12.90;49.60;;;;;;5093331;28;20046;-37
2021/04/29 07:43:57;;;;;;;19.83;12.43;;;12.90;49.70;;;;;;5093324;28;20024;-36
2021/04/29 07:46:23;;;;;;;23.27;16.52;;;13.10;49.20;;;;;;5093640;28;20024;-36
2021/04/29 07:48:49;;;;;;;28.95;14.52;;;13.10;49.40;;;;;;5091600;28;20488;-36
2021/04/29 07:51:15;;;;;;;25.60;14.65;;;13.30;48.70;;;;;;5091412;28;20170;-36
2021/04/29 07:53:40;;;;;;;26.90;14.60;;;13.10;49.20;;;;;;5093060;28;20035;-35
2021/04/29 07:56:06;;;;;;;22.60;15.65;;;13.20;49.30;;;;;;5092601;28;20024;-37
2021/04/29 07:58:32;;;;;;;26.23;14.60;;;13.60;48.40;;;;;;5093750;28;20356;-35
2021/04/29 08:00:57;;;;;;;28.35;14.52;;;13.60;48.20;;;;;;5093193;28;20064;-36
2021/04/29 08:03:23;;;;;;;17.20;12.10;;;13.50;48.00;;;;;;5095896;28;20028;-36
2021/04/29 08:05:49;;;;;;;22.40;14.90;;;13.60;48.00;;;;;;5097643;28;20468;-36
2021/04/29 08:08:15;;;;;;;22.48;14.70;;;13.80;47.60;;;;;;5097299;28;20073;-36
2021/04/29 08:10:41;;;;;;;25.52;15.63;;;13.60;48.30;;;;;;5097484;28;20016;-35
2021/04/29 08:13:09;;;;;;;23.13;15.23;;;13.70;47.80;;;;;;5097110;28;20361;-36
2021/04/29 08:15:35;;;;;;;20.33;14.05;;;13.80;47.70;;;;;;5097017;28;20073;-35
2021/04/29 08:18:01;;;;;;;21.40;14.68;;;13.80;47.80;;;;;;5097103;28;20418;-40
2021/04/29 08:20:26;;;;;;;25.48;17.65;;;13.40;49.20;;;;;;5095560;28;20389;-35
2021/04/29 08:22:52;;;;;;;25.42;15.70;;;13.50;48.90;;;;;;5096613;28;20427;-36
2021/04/29 08:25:18;;;;;;;23.60;16.33;;;13.30;49.80;;;;;;5095301;28;20024;-37
2021/04/29 08:27:43;;;;;;;28.30;16.48;;;13.40;49.70;;;;;;5096609;28;20052;-36
2021/04/29 08:30:09;;;;;;;31.98;17.77;;;13.70;49.00;;;;;;5096504;28;20028;-35
2021/04/29 08:32:35;;;;;;;28.80;17.77;;;13.80;49.20;;;;;;5095231;28;20024;-35
2021/04/29 08:35:01;;;;;;;24.38;18.52;;;13.30;50.70;;;;;;5096399;28;20028;-35
2021/04/29 08:37:27;;;;;;;31.52;16.77;;;13.80;49.50;;;;;;5096870;28;20047;-36
2021/04/29 08:39:52;;;;;;;26.30;19.90;;;13.80;49.80;;;;;;5096752;28;20020;-36
2021/04/29 08:42:18;;;;;;;33.88;19.95;;;14.20;49.80;;;;;;5096804;28;20375;-35
2021/04/29 08:44:44;;;;;;;35.17;21.60;;;14.80;47.90;;;;;;5095988;28;20463;-35
2021/04/29 08:47:10;;;;;;;32.90;23.65;;;14.80;48.20;;;;;;5095206;28;20558;-37
2021/04/29 08:49:39;;;;;;;32.25;22.52;;;14.20;50.10;;;;;;5095977;28;20044;-35
2021/04/29 08:52:07;;;;;;;36.42;23.48;;;13.30;52.60;;;;;;5096583;28;20050;-35
2021/04/29 08:54:35;;;;;;;42.05;26.88;;;13.60;52.30;;;;;;5096171;28;20031;-35
2021/04/29 08:57:01;;;;;;;39.25;24.15;;;13.80;53.20;;;;;;5096633;28;20490;-36
2021/04/29 08:59:27;;;;;;;42.58;28.38;;;13.40;54.20;;;;;;5096245;28;20028;-36
2021/04/29 09:01:53;;;;;;;50.50;34.22;;;13.60;54.70;;;;;;5096197;28;20028;-36
2021/04/29 09:04:21;;;;;;;48.65;35.60;;;13.20;56.60;;;;;;5096113;28;20093;-36
2021/04/29 09:06:48;;;;;;;46.97;33.38;;;13.70;55.30;;;;;;5094812;28;20470;-36
2021/04/29 09:09:15;;;;;;;58.92;35.63;;;14.20;54.10;;;;;;5095903;28;20103;-35
2021/04/29 09:11:47;;;;;;;44.53;31.77;;;14.10;54.20;;;;;;5096156;28;20099;-35
2021/04/29 09:14:13;;;;;;;46.60;30.38;;;13.70;54.00;;;;;;5095330;28;20020;-35
2021/04/29 09:16:41;;;;;;;42.20;29.92;;;13.10;55.70;;;;;;5094757;28;20376;-36
2021/04/29 09:19:24;;;;;;;50.38;30.15;;;12.80;55.10;;;;;;5096143;28;20045;-34
2021/04/29 09:21:50;;;;;;;32.97;19.88;;;12.90;54.90;;;;;;5095694;28;20030;-35
2021/04/29 09:24:16;;;;;;;45.28;30.30;;;12.90;55.00;;;;;;5095667;28;20468;-34
2021/04/29 09:26:42;;;;;;;50.13;31.52;;;13.10;54.90;;;;;;5094651;28;20464;-35
2021/04/29 09:29:15;;;;;;;43.85;29.77;;;13.80;53.00;;;;;;5095924;28;20035;-35
2021/04/29 09:31:43;;;;;;;49.42;32.60;;;13.50;53.70;;;;;;5095797;28;20395;-35
2021/04/29 09:34:09;;;;;;;48.42;33.35;;;13.00;55.20;;;;;;5095706;28;20047;-36
2021/04/29 09:36:38;;;;;;;47.03;28.02;;;12.30;58.40;;;;;;5095619;28;20091;-36
2021/04/29 09:39:06;;;;;;;55.13;34.20;;;12.40;58.50;;;;;;5096394;28;20035;-36
2021/04/29 09:41:36;;;;;;;43.60;31.48;;;12.60;57.30;;;;;;5095811;28;20095;-42
2021/04/29 09:44:07;;;;;;;48.37;30.07;;;12.80;56.80;;;;;;5095751;28;20032;-35
2021/04/29 09:47:02;;;;;;;53.15;33.60;;;12.80;56.80;;;;;;5095400;28;20025;-35
2021/04/29 09:49:35;;;;;;;50.45;32.15;;;13.00;56.50;;;;;;5095370;28;20480;-36
2021/04/29 09:52:04;;;;;;;45.50;29.85;;;13.60;54.40;;;;;;5095781;28;20043;-36
2021/04/29 09:54:32;;;;;;;47.65;31.58;;;14.10;52.20;;;;;;5095145;28;20464;-35
2021/04/29 09:57:01;;;;;;;46.40;30.08;;;14.50;51.60;;;;;;5077725;28;20039;-36
2021/04/29 09:59:28;;;;;;;47.22;30.63;;;14.20;51.10;;;;;;5094184;28;20365;-37
2021/04/29 10:01:55;;;;;;;43.78;29.95;;;13.60;53.00;;;;;;5095349;28;20069;-37
2021/04/29 10:04:30;;;;;;;45.80;31.25;;;13.10;54.20;;;;;;5095443;28;20121;-36
2021/04/29 10:06:59;;;;;;;40.63;27.77;;;13.30;54.10;;;;;;5095770;28;20020;-37
2021/04/29 10:09:28;;;;;;;40.70;25.08;;;13.30;51.70;;;;;;5095408;28;20016;-36
2021/04/29 10:11:59;;;;;;;32.92;21.80;;;13.00;52.90;;;;;;5095253;28;20065;-36
2021/04/29 10:14:34;;;;;;;38.90;21.83;;;13.00;52.50;;;;;;5095362;28;20024;-36
2021/04/29 10:17:05;;;;;;;37.60;23.77;;;13.30;51.80;;;;;;5095347;28;20392;-36
2021/04/29 10:19:34;;;;;;;31.33;22.30;;;13.30;51.50;;;;;;5095298;28;20463;-36
2021/04/29 10:22:01;;;;;;;31.83;22.27;;;13.00;51.40;;;;;;5095265;28;20032;-35
2021/04/29 10:24:27;;;;;;;32.33;21.25;;;13.80;49.40;;;;;;5094903;28;20069;-36
2021/04/29 10:27:01;;;;;;;35.28;21.58;;;13.60;48.60;;;;;;5094462;28;20357;-36
2021/04/29 10:29:27;;;;;;;32.72;21.92;;;14.30;47.30;;;;;;5094119;28;20016;-37
2021/04/29 10:31:59;;;;;;;39.40;23.92;;;15.20;45.50;;;;;;5095247;28;20095;-37
2021/04/29 10:34:45;;;;;;;36.83;21.75;;;15.80;44.10;;;;;;5095048;28;20025;-37
2021/04/29 10:37:18;;;;;;;31.80;22.27;;;15.30;45.30;;;;;;5094859;28;20025;-36
2021/04/29 10:39:55;;;;;;;34.67;22.17;;;15.80;44.40;;;;;;5094752;28;20024;-36
2021/04/29 10:42:24;;;;;;;33.88;22.65;;;15.20;45.80;;;;;;5094468;28;20024;-36
2021/04/29 10:44:57;;;;;;;31.42;22.70;;;15.30;44.90;;;;;;5093254;28;20361;-36
2021/04/29 10:47:27;;;;;;;31.33;19.00;;;14.30;47.70;;;;;;5094664;28;20051;-37
2021/04/29 10:50:05;;;;;;;36.30;18.35;;;13.80;47.70;;;;;;5094313;28;20447;-36
2021/04/29 10:52:31;;;;;;;28.65;16.25;;;14.00;47.30;;;;;;5094705;28;20024;-37
2021/04/29 10:54:57;;;;;;;29.92;18.20;;;14.40;45.40;;;;;;5094553;28;20030;-36
2021/04/29 10:57:26;;;;;;;36.42;19.13;;;15.20;43.70;;;;;;5092967;28;20143;-39
2021/04/29 10:59:55;;;;;;;29.42;18.60;;;15.70;42.70;;;;;;5094430;28;20507;-37
2021/04/29 11:02:25;;;;;;;30.05;19.20;;;15.80;42.70;;;;;;5094041;28;20039;-36
2021/04/29 11:04:52;;;;;;;27.83;15.35;;;14.90;43.30;;;;;;5094526;28;20484;-36
2021/04/29 11:07:20;;;;;;;19.65;12.93;;;14.50;43.10;;;;;;5093398;28;20392;-36
2021/04/29 11:10:02;;;;;;;20.33;11.70;;;14.30;42.80;;;;;;5094245;28;20372;-35
2021/04/29 11:12:55;;;;;;;18.77;13.95;;;14.80;42.60;;;;;;5094264;28;20097;-36
2021/04/29 11:15:31;;;;;;;23.65;16.25;;;14.90;42.00;;;;;;5094125;28;20032;-37
2021/04/29 11:18:10;;;;;;;23.08;13.88;;;15.10;42.30;;;;;;5094146;28;20024;-35
2021/04/29 11:20:48;;;;;;;19.35;14.23;;;16.00;40.40;;;;;;5093651;28;20055;-36
2021/04/29 11:23:19;;;;;;;23.20;15.38;;;15.90;40.80;;;;;;5092527;28;20032;-36
2021/04/29 11:25:46;;;;;;;19.95;12.23;;;14.70;43.70;;;;;;5092509;28;20020;-36
2021/04/29 11:28:12;;;;;;;25.00;15.77;;;15.10;43.20;;;;;;5093661;28;20020;-36
2021/04/29 11:30:41;;;;;;;28.05;15.90;;;15.20;43.40;;;;;;5093464;28;20027;-36
2021/04/29 11:33:12;;;;;;;22.50;14.65;;;14.90;44.50;;;;;;5093734;28;20024;-37
2021/04/29 11:35:40;;;;;;;18.63;12.38;;;15.00;43.20;;;;;;5093113;28;20073;-38
2021/04/29 11:38:08;;;;;;;14.32;11.30;;;14.80;43.30;;;;;;5093730;28;20035;-37
2021/04/29 11:40:35;;;;;;;13.02;10.10;;;14.90;42.80;;;;;;5094398;28;20057;-36
2021/04/29 11:43:03;;;;;;;17.15;11.20;;;14.00;44.20;;;;;;5075945;28;20555;-36
2021/04/29 11:45:36;;;;;;;15.50;10.20;;;15.10;41.40;;;;;;5092813;28;20094;-36
2021/04/29 11:48:08;;;;;;;14.88;11.00;;;15.30;40.80;;;;;;5094419;28;20023;-36
2021/04/29 11:50:41;;;;;;;15.50;9.90;;;14.70;43.10;;;;;;5094393;28;20048;-35
2021/04/29 11:53:09;;;;;;;14.25;9.85;;;15.00;42.50;;;;;;5094755;28;20028;-36
2021/04/29 11:55:38;;;;;;;13.73;8.82;;;14.80;43.30;;;;;;5093922;28;20047;-36
2021/04/29 11:58:08;;;;;;;12.93;8.88;;;14.30;43.80;;;;;;5075745;28;20024;-43
2021/04/29 12:00:37;;;;;;;16.88;9.43;;;14.10;44.30;;;;;;5092345;28;20028;-35
2021/04/29 12:03:07;;;;;;;12.35;9.85;;;14.00;45.40;;;;;;5092647;28;20047;-36
2021/04/29 12:05:44;;;;;;;14.63;10.65;;;14.10;45.90;;;;;;5093583;28;20028;-35
2021/04/29 12:08:25;;;;;;;16.65;9.65;;;13.50;48.20;;;;;;5093230;28;20468;-37
2021/04/29 12:11:02;;;;;;;19.92;10.15;;;13.40;49.20;;;;;;5093557;28;20099;-36
2021/04/29 12:13:32;;;;;;;11.45;9.43;;;13.50;49.60;;;;;;5092175;28;20507;-35
2021/04/29 12:16:00;;;;;;;12.75;8.43;;;13.50;48.70;;;;;;5093476;28;20054;-35
2021/04/29 12:18:27;;;;;;;10.20;6.60;;;13.30;48.90;;;;;;5093476;28;20433;-36
2021/04/29 12:20:53;;;;;;;9.93;6.75;;;13.40;47.80;;;;;;5092284;28;20024;-35
2021/04/29 12:23:19;;;;;;;13.02;7.13;;;13.80;46.30;;;;;;5093180;28;20495;-36
2021/04/29 12:26:03;;;;;;;14.63;6.15;;;14.00;46.00;;;;;;5091903;28;20032;-36
2021/04/29 12:28:46;;;;;;;12.45;6.55;;;13.70;47.00;;;;;;5093511;28;20020;-35
2021/04/29 12:31:17;;;;;;;9.52;6.28;;;13.10;49.00;;;;;;5093646;28;20051;-37
2021/04/29 12:34:16;;;;;;;10.23;7.15;;;13.70;47.30;;;;;;5093615;28;20085;-37